createdAt,value
2022-08-20T00:00:00.002Z,8.52
2022-08-20T00:01:03.327Z,8.60
2022-08-20T00:02:05.794Z,8.60
2022-08-20T00:03:11.054Z,8.35
2022-08-20T00:04:13.496Z,8.23
2022-08-20T00:05:18.116Z,8.90
2022-08-20T00:06:23.990Z,7.72
2022-08-20T00:07:27.190Z,7.45
2022-08-20T00:08:31.165Z,8.07
2022-08-20T00:09:36.871Z,7.53
2022-08-20T00:10:42.685Z,7.78
2022-08-20T00:11:48.422Z,7.85
2022-08-20T00:12:50.920Z,7.70
2022-08-20T00:13:56.322Z,7.60
2022-08-20T00:14:58.720Z,7.72
2022-08-20T00:16:02.616Z,8.20
2022-08-20T00:17:05.780Z,7.40
2022-08-20T00:18:10.081Z,7.70
2022-08-20T00:19:15.550Z,7.10
2022-08-20T00:20:20.445Z,7.13
2022-08-20T00:21:25.531Z,7.07
2022-08-20T00:22:28.174Z,6.97
2022-08-20T00:23:33.074Z,7.88
2022-08-20T00:24:35.458Z,6.60
2022-08-20T00:25:38.705Z,6.80
2022-08-20T00:26:52.240Z,7.32
2022-08-20T00:27:56.822Z,6.90
2022-08-20T00:28:59.062Z,6.63
2022-08-20T00:30:02.363Z,6.60
2022-08-20T00:31:07.332Z,7.00
2022-08-20T00:32:10.503Z,6.57
2022-08-20T00:33:15.888Z,6.47
2022-08-20T00:34:19.832Z,6.32
2022-08-20T00:35:26.036Z,5.80
2022-08-20T00:36:32.499Z,6.03
2022-08-20T00:37:35.244Z,6.25
2022-08-20T00:38:41.239Z,6.15
2022-08-20T00:39:43.653Z,6.07
2022-08-20T00:40:51.212Z,5.70
2022-08-20T00:41:53.325Z,6.10
2022-08-20T00:43:00.422Z,6.13
2022-08-20T00:44:10.211Z,5.95
2022-08-20T00:45:14.003Z,5.70
2022-08-20T00:46:20.182Z,5.70
2022-08-20T00:47:23.620Z,6.60
2022-08-20T00:48:29.106Z,5.80
2022-08-20T00:49:34.155Z,5.93
2022-08-20T00:50:38.228Z,5.57
2022-08-20T00:51:44.999Z,5.80
2022-08-20T00:52:51.509Z,6.28
2022-08-20T00:54:03.410Z,6.10
2022-08-20T00:55:08.422Z,6.50
2022-08-20T00:56:12.715Z,5.93
2022-08-20T00:57:26.305Z,5.55
2022-08-20T00:58:29.109Z,5.68
2022-08-20T00:59:34.811Z,5.68
2022-08-20T01:00:43.117Z,5.70
2022-08-20T01:01:55.255Z,6.20
2022-08-20T01:03:00.699Z,6.15
2022-08-20T01:04:05.749Z,5.28
2022-08-20T01:05:10.681Z,5.80
2022-08-20T01:06:13.859Z,5.53
2022-08-20T01:07:16.034Z,5.10
2022-08-20T01:08:23.349Z,5.25
2022-08-20T01:09:50.596Z,5.60
2022-08-20T01:11:07.116Z,5.70
2022-08-20T01:12:10.048Z,5.30
2022-08-20T01:13:19.045Z,6.05
2022-08-20T01:14:27.045Z,5.63
2022-08-20T01:15:32.802Z,5.65
2022-08-20T01:16:36.658Z,5.90
2022-08-20T01:17:46.320Z,5.43
2022-08-20T01:18:52.625Z,5.38
2022-08-20T01:19:58.453Z,5.80
2022-08-20T01:21:05.940Z,5.30
2022-08-20T01:22:24.626Z,5.57
2022-08-20T01:23:37.622Z,5.20
2022-08-20T01:24:45.964Z,5.50
2022-08-20T01:25:53.677Z,5.47
2022-08-20T01:26:57.797Z,4.88
2022-08-20T01:28:00.534Z,5.32
2022-08-20T01:29:08.704Z,5.20
2022-08-20T01:30:12.123Z,5.00
2022-08-20T01:31:18.516Z,4.95
2022-08-20T01:32:22.721Z,4.80
2022-08-20T01:33:26.534Z,5.10
2022-08-20T01:34:29.846Z,5.03
2022-08-20T01:35:38.193Z,4.68
2022-08-20T01:36:46.315Z,4.93
2022-08-20T01:37:48.999Z,5.22
2022-08-20T01:38:54.818Z,4.63
2022-08-20T01:39:57.230Z,4.57
2022-08-20T01:41:18.342Z,4.80
2022-08-20T01:42:35.919Z,4.88
2022-08-20T01:43:41.948Z,5.13
2022-08-20T01:44:47.208Z,4.65
2022-08-20T01:45:50.398Z,4.90
2022-08-20T01:46:57.799Z,4.72
2022-08-20T01:48:01.180Z,4.53
2022-08-20T01:49:13.613Z,4.85
2022-08-20T01:50:26.177Z,4.63
2022-08-20T01:51:31.365Z,4.40
2022-08-20T01:52:41.325Z,4.35
2022-08-20T01:53:46.687Z,4.38
2022-08-20T01:54:48.963Z,4.32
2022-08-20T01:55:52.164Z,4.25
2022-08-20T01:57:01.653Z,4.53
2022-08-20T01:58:04.481Z,4.43
2022-08-20T01:59:08.102Z,4.65
2022-08-20T02:00:19.097Z,4.50
2022-08-20T02:01:29.931Z,4.80
2022-08-20T02:02:32.436Z,4.35
2022-08-20T02:03:39.722Z,4.43
2022-08-20T02:04:45.293Z,4.88
2022-08-20T02:05:48.429Z,4.47
2022-08-20T02:06:56.567Z,4.25
2022-08-20T02:08:02.344Z,4.20
2022-08-20T02:09:07.209Z,3.88
2022-08-20T02:10:12.492Z,4.15
2022-08-20T02:11:15.640Z,3.88
2022-08-20T02:12:19.491Z,3.75
2022-08-20T02:13:24.808Z,4.20
2022-08-20T02:14:27.958Z,4.10
2022-08-20T02:15:34.993Z,3.97
2022-08-20T02:16:44.432Z,3.90
2022-08-20T02:17:58.885Z,4.07
2022-08-20T02:19:09.459Z,4.18
2022-08-20T02:20:17.122Z,5.20
2022-08-20T02:21:19.271Z,4.20
2022-08-20T02:22:28.442Z,4.53
2022-08-20T02:23:32.002Z,4.72
2022-08-20T02:24:35.543Z,4.75
2022-08-20T02:25:40.310Z,5.18
2022-08-20T02:26:44.417Z,5.40
2022-08-20T02:27:49.301Z,5.55
2022-08-20T02:28:54.986Z,5.15
2022-08-20T02:29:57.124Z,5.00
2022-08-20T02:31:01.633Z,5.78
2022-08-20T02:32:32.250Z,6.20
2022-08-20T02:33:29.427Z,6.68
2022-08-20T02:34:31.724Z,6.40
2022-08-20T02:35:35.160Z,6.35
2022-08-20T02:36:38.368Z,5.97
2022-08-20T02:37:43.549Z,6.13
2022-08-20T02:38:46.909Z,6.35
2022-08-20T02:39:50.158Z,7.00
2022-08-20T02:40:52.903Z,7.85
2022-08-20T02:41:56.016Z,7.53
2022-08-20T02:43:00.839Z,7.45
2022-08-20T02:44:04.948Z,7.00
2022-08-20T02:45:08.194Z,6.55
2022-08-20T02:46:18.978Z,7.10
2022-08-20T02:47:21.116Z,7.25
2022-08-20T02:48:24.514Z,7.50
2022-08-20T02:49:26.662Z,6.88
2022-08-20T02:50:30.334Z,7.32
2022-08-20T02:51:33.346Z,7.63
2022-08-20T02:52:36.440Z,7.55
2022-08-20T02:53:41.814Z,6.97
2022-08-20T02:54:44.936Z,7.28
2022-08-20T02:55:48.157Z,8.32
2022-08-20T02:56:52.078Z,8.13
2022-08-20T02:57:54.788Z,7.65
2022-08-20T02:59:03.662Z,7.82
2022-08-20T03:00:08.412Z,8.55
2022-08-20T03:01:14.003Z,7.65
2022-08-20T03:02:16.293Z,8.45
2022-08-20T03:03:22.488Z,9.30
2022-08-20T03:04:24.679Z,9.52
2022-08-20T03:05:29.535Z,10.05
2022-08-20T03:06:32.016Z,9.73
2022-08-20T03:07:43.737Z,9.00
2022-08-20T03:08:45.850Z,9.50
2022-08-20T03:09:49.022Z,9.23
2022-08-20T03:10:52.176Z,9.23
2022-08-20T03:11:55.309Z,10.50
2022-08-20T03:12:57.429Z,10.10
2022-08-20T03:14:00.543Z,9.63
2022-08-20T03:15:05.268Z,9.52
2022-08-20T03:16:09.305Z,10.02
2022-08-20T03:17:11.579Z,10.13
2022-08-20T03:18:16.351Z,9.88
2022-08-20T03:19:18.510Z,9.60
2022-08-20T03:20:23.935Z,10.57
2022-08-20T03:21:26.759Z,9.90
2022-08-20T03:22:29.965Z,10.15
2022-08-20T03:23:34.074Z,10.95
2022-08-20T03:24:37.733Z,10.55
2022-08-20T03:25:40.919Z,10.20
2022-08-20T03:26:43.392Z,11.18
2022-08-20T03:27:47.202Z,10.88
2022-08-20T03:28:56.202Z,10.85
2022-08-20T03:29:59.402Z,10.55
2022-08-20T03:31:04.086Z,10.32
2022-08-20T03:32:07.936Z,9.85
2022-08-20T03:33:10.357Z,9.57
2022-08-20T03:34:13.580Z,9.50
2022-08-20T03:35:18.590Z,10.23
2022-08-20T03:36:24.214Z,10.35
2022-08-20T03:37:31.454Z,9.65
2022-08-20T03:38:35.126Z,10.00
2022-08-20T03:39:37.312Z,10.25
2022-08-20T03:40:40.941Z,10.27
2022-08-20T03:41:43.050Z,9.75
2022-08-20T03:42:46.371Z,10.48
2022-08-20T03:43:48.630Z,9.65
2022-08-20T03:44:58.637Z,9.23
2022-08-20T03:46:04.732Z,9.15
2022-08-20T03:47:09.430Z,9.68
2022-08-20T03:48:14.965Z,8.63
2022-08-20T03:49:17.214Z,9.30
2022-08-20T03:50:23.624Z,8.63
2022-08-20T03:51:26.079Z,9.75
2022-08-20T03:52:29.692Z,8.98
2022-08-20T03:53:31.900Z,10.18
2022-08-20T03:54:35.469Z,10.18
2022-08-20T03:55:37.586Z,9.57
2022-08-20T03:56:40.714Z,10.10
2022-08-20T03:57:45.093Z,10.27
2022-08-20T03:58:48.129Z,9.90
2022-08-20T03:59:54.847Z,10.25
2022-08-20T04:01:01.727Z,9.57
2022-08-20T04:02:06.394Z,10.18
2022-08-20T04:03:10.668Z,10.38
2022-08-20T04:04:12.953Z,9.98
2022-08-20T04:05:16.108Z,11.07
2022-08-20T04:06:19.399Z,10.60
2022-08-20T04:07:25.889Z,11.02
2022-08-20T04:08:30.480Z,10.63
2022-08-20T04:09:33.065Z,10.63
2022-08-20T04:10:36.644Z,10.40
2022-08-20T04:11:39.321Z,10.95
2022-08-20T04:12:53.007Z,11.68
2022-08-20T04:13:55.453Z,12.43
2022-08-20T04:14:58.610Z,13.20
2022-08-20T04:16:02.122Z,12.23
2022-08-20T04:17:09.988Z,10.75
2022-08-20T04:18:13.357Z,11.27
2022-08-20T04:19:16.509Z,11.50
2022-08-20T04:20:22.818Z,10.80
2022-08-20T04:21:26.131Z,11.48
2022-08-20T04:22:33.161Z,11.98
2022-08-20T04:23:36.459Z,12.40
2022-08-20T04:24:38.589Z,13.77
2022-08-20T04:25:43.353Z,13.95
2022-08-20T04:26:45.579Z,13.80
2022-08-20T04:27:50.537Z,13.93
2022-08-20T04:28:53.070Z,14.45
2022-08-20T04:29:56.215Z,13.65
2022-08-20T04:31:01.421Z,13.70
2022-08-20T04:32:05.929Z,14.75
2022-08-20T04:33:11.197Z,14.85
2022-08-20T04:34:13.469Z,14.45
2022-08-20T04:35:18.406Z,14.38
2022-08-20T04:36:20.494Z,14.45
2022-08-20T04:37:24.508Z,15.00
2022-08-20T04:38:27.865Z,15.55
2022-08-20T04:40:05.628Z,15.48
2022-08-20T04:41:08.958Z,15.20
2022-08-20T04:42:25.487Z,15.73
2022-08-20T04:43:30.574Z,15.38
2022-08-20T04:44:32.981Z,15.95
2022-08-20T04:45:36.118Z,16.20
2022-08-20T04:46:39.385Z,16.50
2022-08-20T04:47:42.658Z,16.27
2022-08-20T04:48:50.460Z,16.27
2022-08-20T04:49:53.795Z,15.68
2022-08-20T04:51:02.605Z,15.95
2022-08-20T04:52:06.271Z,16.38
2022-08-20T04:53:13.016Z,16.15
2022-08-20T04:54:15.137Z,15.80
2022-08-20T04:55:19.194Z,15.20
2022-08-20T04:56:23.879Z,15.77
2022-08-20T04:57:27.439Z,15.23
2022-08-20T04:58:34.834Z,15.63
2022-08-20T04:59:36.918Z,15.80
2022-08-20T05:00:40.715Z,15.00
2022-08-20T05:01:42.929Z,14.43
2022-08-20T05:02:46.243Z,15.38
2022-08-20T05:03:51.346Z,15.07
2022-08-20T05:04:53.443Z,15.70
2022-08-20T05:05:57.624Z,15.43
2022-08-20T05:06:59.763Z,14.68
2022-08-20T05:08:03.210Z,15.45
2022-08-20T05:09:06.351Z,15.55
2022-08-20T05:10:11.207Z,15.23
2022-08-20T05:11:36.143Z,16.08
2022-08-20T05:12:38.074Z,14.95
2022-08-20T05:13:40.840Z,15.73
2022-08-20T05:14:43.949Z,15.65
2022-08-20T05:15:46.107Z,16.42
2022-08-20T05:16:50.682Z,15.73
2022-08-20T05:17:56.642Z,14.75
2022-08-20T05:19:01.318Z,14.65
2022-08-20T05:20:04.289Z,14.57
2022-08-20T05:21:07.695Z,14.18
2022-08-20T05:22:09.796Z,14.98
2022-08-20T05:23:14.552Z,14.52
2022-08-20T05:24:16.889Z,13.98
2022-08-20T05:25:21.789Z,14.00
2022-08-20T05:26:26.374Z,14.15
2022-08-20T05:27:30.126Z,14.52
2022-08-20T05:28:32.930Z,14.13
2022-08-20T05:29:40.079Z,13.63
2022-08-20T05:30:45.088Z,13.55
2022-08-20T05:31:50.891Z,13.45
2022-08-20T05:32:53.097Z,13.43
2022-08-20T05:33:57.790Z,13.55
2022-08-20T05:35:01.532Z,13.43
2022-08-20T05:36:07.396Z,13.02
2022-08-20T05:37:10.392Z,14.30
2022-08-20T05:38:18.147Z,13.90
2022-08-20T05:39:21.989Z,13.13
2022-08-20T05:40:25.612Z,13.05
2022-08-20T05:41:30.407Z,12.30
2022-08-20T05:42:33.852Z,12.38
2022-08-20T05:43:37.032Z,12.90
2022-08-20T05:44:39.275Z,12.70
2022-08-20T05:45:44.534Z,13.18
2022-08-20T05:46:48.991Z,13.38
2022-08-20T05:47:53.406Z,12.95
2022-08-20T05:49:00.324Z,13.82
2022-08-20T05:50:05.542Z,14.70
2022-08-20T05:51:12.098Z,13.25
2022-08-20T05:52:18.430Z,13.70
2022-08-20T05:53:23.116Z,13.32
2022-08-20T05:54:25.807Z,14.13
2022-08-20T05:55:29.991Z,12.95
2022-08-20T05:56:32.535Z,13.68
2022-08-20T05:57:35.957Z,13.55
2022-08-20T05:58:38.233Z,13.25
2022-08-20T05:59:41.408Z,12.73
2022-08-20T06:00:43.512Z,13.80
2022-08-20T06:01:46.706Z,12.68
2022-08-20T06:03:07.480Z,13.18
2022-08-20T06:04:25.370Z,12.43
2022-08-20T06:05:28.957Z,12.60
2022-08-20T06:06:44.563Z,13.55
2022-08-20T06:07:50.687Z,12.60
2022-08-20T06:08:57.845Z,12.00
2022-08-20T06:10:01.419Z,12.73
2022-08-20T06:11:05.428Z,12.93
2022-08-20T06:12:08.997Z,13.90
2022-08-20T06:13:14.045Z,12.85
2022-08-20T06:14:17.686Z,12.93
2022-08-20T06:15:21.052Z,13.90
2022-08-20T06:16:29.054Z,14.00
2022-08-20T06:17:39.425Z,12.73
2022-08-20T06:18:42.843Z,13.88
2022-08-20T06:19:47.030Z,13.30
2022-08-20T06:20:51.692Z,14.10
2022-08-20T06:21:54.152Z,13.63
2022-08-20T06:22:57.596Z,14.05
2022-08-20T06:24:01.635Z,13.60
2022-08-20T06:25:07.395Z,13.15
2022-08-20T06:26:09.600Z,13.82
2022-08-20T06:27:15.698Z,14.38
2022-08-20T06:28:19.474Z,14.50
2022-08-20T06:29:21.588Z,15.07
2022-08-20T06:30:25.470Z,13.88
2022-08-20T06:31:27.973Z,14.93
2022-08-20T06:32:32.710Z,13.68
2022-08-20T06:33:35.127Z,13.60
2022-08-20T06:34:38.371Z,14.45
2022-08-20T06:35:55.918Z,14.82
2022-08-20T06:36:58.939Z,13.82
2022-08-20T06:38:02.119Z,14.13
2022-08-20T06:39:04.329Z,13.13
2022-08-20T06:40:11.123Z,13.60
2022-08-20T06:41:14.180Z,14.38
2022-08-20T06:42:21.021Z,13.95
2022-08-20T06:43:24.380Z,14.05
2022-08-20T06:44:28.520Z,13.65
2022-08-20T06:45:33.914Z,13.63
2022-08-20T06:46:37.450Z,13.70
2022-08-20T06:47:42.209Z,14.05
2022-08-20T06:48:44.423Z,14.20
2022-08-20T06:49:48.733Z,13.20
2022-08-20T06:50:50.935Z,12.75
2022-08-20T06:51:55.481Z,14.35
2022-08-20T06:52:59.757Z,12.77
2022-08-20T06:54:01.958Z,13.55
2022-08-20T06:55:05.879Z,12.43
2022-08-20T06:56:09.083Z,12.18
2022-08-20T06:57:11.284Z,12.65
2022-08-20T06:58:22.243Z,11.80
2022-08-20T06:59:37.127Z,11.55
2022-08-20T07:00:43.703Z,12.55
2022-08-20T07:01:46.234Z,11.00
2022-08-20T07:02:49.484Z,10.80
2022-08-20T07:03:55.697Z,10.73
2022-08-20T07:04:59.628Z,9.70
2022-08-20T07:06:01.891Z,9.80
2022-08-20T07:07:06.714Z,10.15
2022-08-20T07:08:09.694Z,9.85
2022-08-20T07:09:12.841Z,9.55
2022-08-20T07:10:15.870Z,9.55
2022-08-20T07:11:24.932Z,9.20
2022-08-20T07:12:29.863Z,8.63
2022-08-20T07:13:33.128Z,8.45
2022-08-20T07:14:35.911Z,8.25
2022-08-20T07:15:39.855Z,7.70
2022-08-20T07:16:42.143Z,7.20
2022-08-20T07:17:50.386Z,7.10
2022-08-20T07:18:52.585Z,7.13
2022-08-20T07:19:55.806Z,6.47
2022-08-20T07:20:58.528Z,6.55
2022-08-20T07:22:01.695Z,6.10
2022-08-20T07:23:12.016Z,5.50
2022-08-20T07:24:15.225Z,6.00
2022-08-20T07:25:19.757Z,5.30
2022-08-20T07:26:23.644Z,5.90
2022-08-20T07:27:25.890Z,5.40
2022-08-20T07:28:29.716Z,5.00
2022-08-20T07:29:46.812Z,5.50
2022-08-20T07:31:13.844Z,5.65
2022-08-20T07:32:36.842Z,5.55
2022-08-20T07:33:41.337Z,6.63
2022-08-20T07:34:43.588Z,6.25
2022-08-20T07:35:49.023Z,6.50
2022-08-20T07:36:52.195Z,7.38
2022-08-20T07:37:54.926Z,6.97
2022-08-20T07:38:59.580Z,6.47
2022-08-20T07:40:12.134Z,6.60
2022-08-20T07:41:15.894Z,6.63
2022-08-20T07:42:18.052Z,5.78
2022-08-20T07:43:23.213Z,6.43
2022-08-20T07:44:28.487Z,6.55
2022-08-20T07:45:34.264Z,5.88
2022-08-20T07:46:37.386Z,5.68
2022-08-20T07:47:41.625Z,5.60
2022-08-20T07:48:49.606Z,5.50
2022-08-20T07:49:51.781Z,5.20
2022-08-20T07:50:55.984Z,4.70
2022-08-20T07:51:58.419Z,4.20
2022-08-20T07:53:02.002Z,4.30
2022-08-20T07:54:06.851Z,3.85
2022-08-20T07:55:11.378Z,3.80
2022-08-20T07:56:16.861Z,3.83
2022-08-20T07:57:19.103Z,4.03
2022-08-20T07:58:23.961Z,4.15
2022-08-20T08:00:35.414Z,3.45
2022-08-20T08:01:38.663Z,3.08
2022-08-20T08:02:41.000Z,3.45
2022-08-20T08:03:50.098Z,2.97
2022-08-20T08:04:52.889Z,3.33
2022-08-20T08:05:57.141Z,2.60
2022-08-20T08:07:00.680Z,2.80
2022-08-20T08:08:08.763Z,2.55
2022-08-20T08:10:25.957Z,2.85
2022-08-20T08:11:29.868Z,2.70
2022-08-20T08:12:39.756Z,2.85
2022-08-20T08:13:43.556Z,3.10
2022-08-20T08:14:50.507Z,2.70
2022-08-20T08:15:57.488Z,2.38
2022-08-20T08:17:04.961Z,2.30
2022-08-20T08:18:12.168Z,1.98
2022-08-20T08:19:18.494Z,2.10
2022-08-20T08:20:21.987Z,2.63
2022-08-20T08:21:25.741Z,2.53
2022-08-20T08:22:31.876Z,2.35
2022-08-20T08:23:37.466Z,2.20
2022-08-20T08:24:42.184Z,2.38
2022-08-20T08:26:06.706Z,2.70
2022-08-20T08:27:18.998Z,2.25
2022-08-20T08:28:22.430Z,2.55
2022-08-20T08:29:24.683Z,2.25
2022-08-20T08:30:31.397Z,2.13
2022-08-20T08:31:33.709Z,2.03
2022-08-20T08:32:37.249Z,2.50
2022-08-20T08:33:40.865Z,1.95
2022-08-20T08:34:48.151Z,2.60
2022-08-20T08:35:50.321Z,2.63
2022-08-20T08:36:53.893Z,2.30
2022-08-20T08:38:00.921Z,2.50
2022-08-20T08:39:04.111Z,2.28
2022-08-20T08:40:09.490Z,2.33
2022-08-20T08:41:17.743Z,2.35
2022-08-20T08:42:28.912Z,2.40
2022-08-20T08:43:32.823Z,2.30
2022-08-20T08:44:42.657Z,2.28
2022-08-20T08:45:48.282Z,2.40
2022-08-20T08:46:56.225Z,2.53
2022-08-20T08:47:59.263Z,2.40
2022-08-20T08:49:02.878Z,2.53
2022-08-20T08:50:06.862Z,2.50
2022-08-20T08:51:12.975Z,2.40
2022-08-20T08:52:22.355Z,2.15
2022-08-20T08:53:29.766Z,2.63
2022-08-20T08:54:35.187Z,2.47
2022-08-20T08:55:38.676Z,2.50
2022-08-20T08:56:43.296Z,2.30
2022-08-20T08:57:55.686Z,2.35
2022-08-20T08:59:01.825Z,2.53
2022-08-20T09:00:08.926Z,2.08
2022-08-20T09:01:55.424Z,2.10
2022-08-20T09:02:38.997Z,1.98
2022-08-20T09:03:44.497Z,2.30
2022-08-20T09:04:47.265Z,2.45
2022-08-20T09:05:53.362Z,2.00
2022-08-20T09:06:56.648Z,1.88
2022-08-20T09:08:01.453Z,2.20
2022-08-20T09:09:07.136Z,2.42
2022-08-20T09:10:09.588Z,2.30
2022-08-20T09:11:14.161Z,2.33
2022-08-20T09:12:19.508Z,2.33
2022-08-20T09:13:22.719Z,2.28
2022-08-20T09:14:25.064Z,2.13
2022-08-20T09:15:28.619Z,2.33
2022-08-20T09:16:52.002Z,2.22
2022-08-20T09:17:55.054Z,2.00
2022-08-20T09:19:00.194Z,2.30
2022-08-20T09:20:04.107Z,2.40
2022-08-20T09:21:07.145Z,2.20
2022-08-20T09:22:11.224Z,2.65
2022-08-20T09:23:13.441Z,1.92
2022-08-20T09:24:16.751Z,2.80
2022-08-20T09:25:19.768Z,2.15
2022-08-20T09:26:24.464Z,2.85
2022-08-20T09:27:32.117Z,2.30
2022-08-20T09:28:37.264Z,2.30
2022-08-20T09:29:39.966Z,2.30
2022-08-20T09:30:43.185Z,2.40
2022-08-20T09:31:47.775Z,2.35
2022-08-20T09:32:50.892Z,2.65
2022-08-20T09:33:54.732Z,2.22
2022-08-20T09:34:57.070Z,2.40
2022-08-20T09:36:00.240Z,2.72
2022-08-20T09:37:03.509Z,2.28
2022-08-20T09:38:06.167Z,2.40
2022-08-20T09:39:10.057Z,2.35
2022-08-20T09:40:12.381Z,2.45
2022-08-20T09:41:15.625Z,2.40
2022-08-20T09:42:21.988Z,2.20
2022-08-20T09:43:25.193Z,2.42
2022-08-20T09:44:27.419Z,2.60
2022-08-20T09:45:31.835Z,2.70
2022-08-20T09:46:34.077Z,2.55
2022-08-20T09:47:37.750Z,2.50
2022-08-20T09:48:43.509Z,2.50
2022-08-20T09:49:46.021Z,2.67
2022-08-20T09:50:50.908Z,2.80
2022-08-20T09:51:53.208Z,2.58
2022-08-20T09:52:58.257Z,2.70
2022-08-20T09:54:02.345Z,2.45
2022-08-20T09:55:16.056Z,2.33
2022-08-20T09:56:19.836Z,2.78
2022-08-20T09:57:23.919Z,2.38
2022-08-20T09:58:35.022Z,2.53
2022-08-20T09:59:37.698Z,2.95
2022-08-20T10:00:41.662Z,2.58
2022-08-20T10:01:43.966Z,2.17
2022-08-20T10:02:47.437Z,2.60
2022-08-20T10:03:50.675Z,2.60
2022-08-20T10:04:54.447Z,2.58
2022-08-20T10:06:01.010Z,2.08
2022-08-20T10:07:07.704Z,2.95
2022-08-20T10:08:12.804Z,2.70
2022-08-20T10:09:15.512Z,2.42
2022-08-20T10:10:18.777Z,2.60
2022-08-20T10:11:21.132Z,2.53
2022-08-20T10:12:25.911Z,2.15
2022-08-20T10:13:28.081Z,2.40
2022-08-20T10:14:31.464Z,2.67
2022-08-20T10:15:33.605Z,2.47
2022-08-20T10:16:36.882Z,2.33
2022-08-20T10:17:41.043Z,2.55
2022-08-20T10:18:43.384Z,2.33
2022-08-20T10:19:46.556Z,2.35
2022-08-20T10:20:48.752Z,2.50
2022-08-20T10:21:52.506Z,2.10
2022-08-20T10:22:55.650Z,2.30
2022-08-20T10:23:58.390Z,2.33
2022-08-20T10:25:01.704Z,2.70
2022-08-20T10:26:04.433Z,2.30
2022-08-20T10:27:08.073Z,2.25
2022-08-20T10:28:12.568Z,2.35
2022-08-20T10:29:15.290Z,2.33
2022-08-20T10:30:18.777Z,2.40
2022-08-20T10:31:20.881Z,2.70
2022-08-20T10:32:24.178Z,2.65
2022-08-20T10:33:26.422Z,2.45
2022-08-20T10:34:29.652Z,2.67
2022-08-20T10:35:31.857Z,2.80
2022-08-20T10:36:35.118Z,2.70
2022-08-20T10:37:38.339Z,2.63
2022-08-20T10:38:40.506Z,2.30
2022-08-20T10:39:43.996Z,2.40
2022-08-20T10:40:52.190Z,2.45
2022-08-20T10:41:55.840Z,2.20
2022-08-20T10:42:59.389Z,2.40
2022-08-20T10:44:04.598Z,3.20
2022-08-20T10:45:07.881Z,2.70
2022-08-20T10:46:11.126Z,2.63
2022-08-20T10:47:18.663Z,2.67
2022-08-20T10:48:22.702Z,2.38
2022-08-20T10:49:24.975Z,2.47
2022-08-20T10:50:30.345Z,2.33
2022-08-20T10:51:34.245Z,2.40
2022-08-20T10:52:37.250Z,2.75
2022-08-20T10:53:40.436Z,1.98
2022-08-20T10:54:42.740Z,2.60
2022-08-20T10:55:46.329Z,2.63
2022-08-20T10:56:48.513Z,2.63
2022-08-20T10:57:51.753Z,2.10
2022-08-20T10:58:53.962Z,2.00
2022-08-20T11:00:00.125Z,2.40
2022-08-20T11:01:02.435Z,2.40
2022-08-20T11:02:05.779Z,2.20
2022-08-20T11:03:08.031Z,2.13
2022-08-20T11:04:11.218Z,1.98
2022-08-20T11:05:13.762Z,2.10
2022-08-20T11:06:17.072Z,2.03
2022-08-20T11:07:50.431Z,2.45
2022-08-20T11:08:47.471Z,2.28
2022-08-20T11:09:50.513Z,2.17
2022-08-20T11:10:53.927Z,2.17
2022-08-20T11:11:56.142Z,2.20
2022-08-20T11:12:59.376Z,2.00
2022-08-20T11:14:01.588Z,2.22
2022-08-20T11:15:09.298Z,2.22
2022-08-20T11:16:12.674Z,2.42
2022-08-20T11:17:20.566Z,2.20
2022-08-20T11:18:23.725Z,2.15
2022-08-20T11:19:25.949Z,2.20
2022-08-20T11:20:31.494Z,1.95
2022-08-20T11:21:34.613Z,1.90
2022-08-20T11:22:37.363Z,1.90
2022-08-20T11:23:40.565Z,2.25
2022-08-20T11:24:42.891Z,2.40
2022-08-20T11:25:50.699Z,2.15
2022-08-20T11:26:53.480Z,2.15
2022-08-20T11:27:57.887Z,2.17
2022-08-20T11:29:00.102Z,2.60
2022-08-20T11:30:03.983Z,1.65
2022-08-20T11:31:08.598Z,2.10
2022-08-20T11:32:10.846Z,1.80
2022-08-20T11:33:14.050Z,2.30
2022-08-20T11:34:16.417Z,2.10
2022-08-20T11:36:46.202Z,1.80
2022-08-20T11:37:48.479Z,1.80
2022-08-20T11:38:51.673Z,2.20
2022-08-20T11:39:54.363Z,1.98
2022-08-20T11:40:57.554Z,2.08
2022-08-20T11:41:59.705Z,2.03
2022-08-20T11:43:18.605Z,1.73
2022-08-20T11:44:21.891Z,2.10
2022-08-20T11:45:24.145Z,1.70
2022-08-20T11:46:28.862Z,2.10
2022-08-20T11:47:33.742Z,1.50
2022-08-20T11:48:36.933Z,1.95
2022-08-20T11:49:39.128Z,1.73
2022-08-20T11:50:42.396Z,2.20
2022-08-20T11:51:50.053Z,2.30
2022-08-20T11:52:53.532Z,1.88
2022-08-20T11:53:55.751Z,1.85
2022-08-20T11:54:59.545Z,1.70
2022-08-20T11:56:02.886Z,1.75
2022-08-20T11:57:06.099Z,2.10
2022-08-20T11:58:10.627Z,2.00
2022-08-20T11:59:14.316Z,1.80
2022-08-20T12:00:21.704Z,1.75
2022-08-20T12:01:37.273Z,1.90
2022-08-20T12:02:40.738Z,1.60
2022-08-20T12:03:44.189Z,1.90
2022-08-20T12:04:47.369Z,2.10
2022-08-20T12:05:49.999Z,1.88
2022-08-20T12:06:53.142Z,1.55
2022-08-20T12:07:55.278Z,1.90
2022-08-20T12:08:58.519Z,1.67
2022-08-20T12:10:00.659Z,1.60
2022-08-20T12:11:04.628Z,1.35
2022-08-20T12:12:07.573Z,1.50
2022-08-20T12:13:10.840Z,1.65
2022-08-20T12:14:13.099Z,1.35
2022-08-20T12:15:16.251Z,1.67
2022-08-20T12:16:19.319Z,1.48
2022-08-20T12:17:26.819Z,1.50
2022-08-20T12:18:29.239Z,2.50
2022-08-20T12:19:32.420Z,1.35
2022-08-20T12:20:36.006Z,1.30
2022-08-20T12:21:38.453Z,1.42
2022-08-20T12:22:42.237Z,1.58
2022-08-20T12:23:45.163Z,1.17
2022-08-20T12:24:48.708Z,1.83
2022-08-20T12:25:51.906Z,1.13
2022-08-20T12:26:54.107Z,1.40
2022-08-20T12:27:57.543Z,1.30
2022-08-20T12:29:00.711Z,1.42
2022-08-20T12:30:06.821Z,1.27
2022-08-20T12:31:10.045Z,1.38
2022-08-20T12:32:12.856Z,1.40
2022-08-20T12:33:17.546Z,1.98
2022-08-20T12:34:19.706Z,1.40
2022-08-20T12:35:23.005Z,1.63
2022-08-20T12:36:25.119Z,1.52
2022-08-20T12:37:30.805Z,1.63
2022-08-20T12:38:34.187Z,1.60
2022-08-20T12:39:39.248Z,1.38
2022-08-20T12:40:42.467Z,1.38
2022-08-20T12:41:45.196Z,1.50
2022-08-20T12:42:48.903Z,1.60
2022-08-20T12:43:51.075Z,1.20
2022-08-20T12:44:54.258Z,1.83
2022-08-20T12:45:57.452Z,1.00
2022-08-20T12:47:07.746Z,1.60
2022-08-20T12:48:13.447Z,1.67
2022-08-20T12:49:17.011Z,2.00
2022-08-20T12:50:23.017Z,1.58
2022-08-20T12:51:26.265Z,2.20
2022-08-20T12:52:30.108Z,1.95
2022-08-20T12:53:33.334Z,1.67
2022-08-20T12:54:36.680Z,2.38
2022-08-20T12:55:39.829Z,3.30
2022-08-20T12:56:42.004Z,2.30
2022-08-20T12:57:47.657Z,1.92
2022-08-20T12:58:49.829Z,1.50
2022-08-20T12:59:52.989Z,1.80
2022-08-20T13:00:56.133Z,1.63
2022-08-20T13:01:58.397Z,1.40
2022-08-20T13:03:17.124Z,1.73
2022-08-20T13:04:21.100Z,1.52
2022-08-20T13:05:24.998Z,1.67
2022-08-20T13:06:28.480Z,1.38
2022-08-20T13:07:31.296Z,1.63
2022-08-20T13:08:34.535Z,1.45
2022-08-20T13:09:36.729Z,1.50
2022-08-20T13:10:46.337Z,1.75
2022-08-20T13:11:48.508Z,1.55
2022-08-20T13:12:51.656Z,1.27
2022-08-20T13:13:53.870Z,1.40
2022-08-20T13:14:57.023Z,1.35
2022-08-20T13:15:59.170Z,1.63
2022-08-20T13:17:03.008Z,1.58
2022-08-20T13:18:06.469Z,1.20
2022-08-20T13:19:09.649Z,1.52
2022-08-20T13:20:17.327Z,1.50
2022-08-20T13:21:23.892Z,1.80
2022-08-20T13:22:26.316Z,1.80
2022-08-20T13:23:29.436Z,1.63
2022-08-20T13:24:31.876Z,1.42
2022-08-20T13:25:35.277Z,1.55
2022-08-20T13:26:37.459Z,1.42
2022-08-20T13:27:42.603Z,1.58
2022-08-20T13:28:44.822Z,1.45
2022-08-20T13:29:48.488Z,1.60
2022-08-20T13:30:51.868Z,1.48
2022-08-20T13:31:54.038Z,1.60
2022-08-20T13:32:57.328Z,1.63
2022-08-20T13:33:59.619Z,1.77
2022-08-20T13:35:02.970Z,2.33
2022-08-20T13:36:06.961Z,2.20
2022-08-20T13:37:14.052Z,1.80
2022-08-20T13:38:17.282Z,1.42
2022-08-20T13:39:19.446Z,1.33
2022-08-20T13:40:22.852Z,1.70
2022-08-20T13:41:25.078Z,1.55
2022-08-20T13:42:29.248Z,1.55
2022-08-20T13:43:31.513Z,1.48
2022-08-20T13:44:34.821Z,1.63
2022-08-20T13:45:38.870Z,1.48
2022-08-20T13:46:41.056Z,1.60
2022-08-20T13:47:44.774Z,1.48
2022-08-20T13:48:46.955Z,1.40
2022-08-20T13:49:55.621Z,1.33
2022-08-20T13:50:58.784Z,1.40
2022-08-20T13:52:02.590Z,1.40
2022-08-20T13:53:07.173Z,1.40
2022-08-20T13:54:10.780Z,1.75
2022-08-20T13:55:16.339Z,1.33
2022-08-20T13:56:18.516Z,1.70
2022-08-20T13:57:24.798Z,1.50
2022-08-20T13:58:26.978Z,1.30
2022-08-20T13:59:30.162Z,1.77
2022-08-20T14:00:34.035Z,1.63
2022-08-20T14:01:37.282Z,2.13
2022-08-20T14:02:39.921Z,1.60
2022-08-20T14:03:43.156Z,1.42
2022-08-20T14:04:45.404Z,1.30
2022-08-20T14:05:48.651Z,1.20
2022-08-20T14:06:50.862Z,1.30
2022-08-20T14:07:55.506Z,1.33
2022-08-20T14:08:57.638Z,1.23
2022-08-20T14:10:08.856Z,1.52
2022-08-20T14:11:12.852Z,1.30
2022-08-20T14:12:22.628Z,1.58
2022-08-20T14:13:26.320Z,1.38
2022-08-20T14:14:29.510Z,1.45
2022-08-20T14:15:31.631Z,1.27
2022-08-20T14:16:35.615Z,1.30
2022-08-20T14:17:40.454Z,1.48
2022-08-20T14:18:43.531Z,1.50